createdAt,value
2023-03-06T00:00:19.845Z,4.30
2023-03-06T00:02:48.521Z,4.27
2023-03-06T00:05:17.965Z,4.90
2023-03-06T00:07:46.748Z,4.47
2023-03-06T00:10:17.086Z,4.03
2023-03-06T00:12:45.670Z,4.47
2023-03-06T00:15:15.949Z,4.23
2023-03-06T00:17:44.343Z,5.53
2023-03-06T00:20:13.790Z,6.67
2023-03-06T00:22:42.719Z,6.50
2023-03-06T00:25:15.464Z,6.10
2023-03-06T00:27:44.218Z,6.20
2023-03-06T00:30:15.990Z,7.60
2023-03-06T00:32:44.792Z,7.20
2023-03-06T00:35:13.757Z,7.67
2023-03-06T00:37:42.100Z,7.57
2023-03-06T00:40:13.470Z,7.37
2023-03-06T00:42:42.278Z,8.37
2023-03-06T00:45:11.992Z,7.70
2023-03-06T00:47:42.342Z,6.60
2023-03-06T00:50:12.594Z,7.60
2023-03-06T00:52:42.214Z,7.33
2023-03-06T00:55:12.169Z,7.27
2023-03-06T00:57:40.799Z,7.17
2023-03-06T01:00:11.763Z,7.37
2023-03-06T01:02:42.182Z,7.53
2023-03-06T01:05:11.792Z,7.23
2023-03-06T01:07:40.384Z,6.80
2023-03-06T01:10:11.044Z,7.77
2023-03-06T01:12:39.677Z,7.50
2023-03-06T01:15:09.751Z,8.07
2023-03-06T01:17:38.501Z,8.30
2023-03-06T01:20:10.128Z,8.40
2023-03-06T01:22:38.789Z,7.33
2023-03-06T01:25:07.877Z,7.70
2023-03-06T01:27:36.540Z,8.90
2023-03-06T01:30:05.987Z,9.63
2023-03-06T01:32:35.018Z,8.03
2023-03-06T01:35:04.216Z,8.67
2023-03-06T01:37:36.944Z,9.47
2023-03-06T01:40:06.655Z,10.43
2023-03-06T01:42:35.296Z,11.00
2023-03-06T01:45:10.865Z,11.53
2023-03-06T01:47:39.472Z,11.73
2023-03-06T01:50:10.305Z,11.20
2023-03-06T01:52:45.152Z,10.00
2023-03-06T01:55:19.042Z,11.03
2023-03-06T01:57:53.436Z,12.10
2023-03-06T02:00:26.543Z,10.40
2023-03-06T02:02:58.311Z,10.63
2023-03-06T02:05:26.778Z,11.57
2023-03-06T02:07:57.298Z,10.27
2023-03-06T02:10:26.093Z,12.77
2023-03-06T02:12:55.201Z,11.63
2023-03-06T02:15:28.451Z,13.37
2023-03-06T02:17:57.029Z,12.50
2023-03-06T02:20:32.731Z,10.67
2023-03-06T02:23:08.180Z,12.53
2023-03-06T02:25:40.603Z,11.73
2023-03-06T02:28:12.927Z,10.73
2023-03-06T02:30:43.209Z,12.43
2023-03-06T02:33:14.376Z,10.90
2023-03-06T02:35:48.291Z,12.67
2023-03-06T02:38:19.038Z,10.60
2023-03-06T02:40:52.358Z,11.03
2023-03-06T02:43:26.126Z,10.70
2023-03-06T02:45:54.913Z,11.10
2023-03-06T02:48:23.674Z,10.70
2023-03-06T02:50:52.407Z,10.90
2023-03-06T02:53:23.143Z,9.57
2023-03-06T02:55:53.311Z,11.37
2023-03-06T02:58:22.066Z,10.30
2023-03-06T03:00:51.438Z,11.30
2023-03-06T03:03:20.399Z,9.80
2023-03-06T03:05:49.157Z,10.43
2023-03-06T03:08:18.173Z,9.77
2023-03-06T03:10:46.779Z,9.17
2023-03-06T03:13:16.848Z,9.43
2023-03-06T03:15:45.648Z,9.37
2023-03-06T03:18:14.116Z,9.47
2023-03-06T03:20:44.147Z,8.40
2023-03-06T03:23:12.715Z,8.60
2023-03-06T03:25:41.133Z,9.43
2023-03-06T03:28:09.403Z,8.13
2023-03-06T03:30:40.501Z,8.57
2023-03-06T03:33:09.202Z,8.30
2023-03-06T03:35:38.753Z,8.53
2023-03-06T03:38:07.268Z,8.20
2023-03-06T03:40:36.829Z,8.23
2023-03-06T03:43:05.166Z,9.20
2023-03-06T03:45:33.519Z,8.70
2023-03-06T03:48:03.186Z,7.40
2023-03-06T03:50:31.920Z,7.53
2023-03-06T03:53:00.500Z,8.00
2023-03-06T03:55:29.826Z,7.20
2023-03-06T03:57:58.162Z,7.00
2023-03-06T04:00:26.685Z,6.60
2023-03-06T04:02:55.132Z,7.33
2023-03-06T04:05:24.959Z,7.07
2023-03-06T04:07:53.373Z,7.10
2023-03-06T04:10:21.869Z,7.07
2023-03-06T04:12:50.361Z,7.27
2023-03-06T04:15:19.119Z,7.77
2023-03-06T04:17:47.463Z,7.93
2023-03-06T04:20:15.945Z,7.80
2023-03-06T04:22:45.898Z,7.50
2023-03-06T04:25:14.537Z,6.70
2023-03-06T04:27:42.874Z,6.17
2023-03-06T04:30:12.778Z,5.63
2023-03-06T04:32:41.320Z,5.23
2023-03-06T04:35:10.260Z,4.70
2023-03-06T04:37:38.690Z,4.30
2023-03-06T04:40:12.489Z,4.07
2023-03-06T04:42:40.993Z,4.10
2023-03-06T04:45:10.770Z,3.83
2023-03-06T04:47:39.265Z,4.00
2023-03-06T04:50:09.134Z,4.03
2023-03-06T04:52:37.670Z,4.13
2023-03-06T04:55:08.843Z,3.87
2023-03-06T04:57:37.402Z,4.00
2023-03-06T05:00:09.542Z,4.03
2023-03-06T05:02:38.497Z,4.30
2023-03-06T05:05:07.452Z,4.03
2023-03-06T05:07:35.844Z,3.77
2023-03-06T05:10:03.885Z,3.80
2023-03-06T05:12:35.995Z,3.57
2023-03-06T05:15:04.253Z,3.77
2023-03-06T05:17:32.340Z,3.73
2023-03-06T05:20:00.595Z,3.60
2023-03-06T05:22:28.633Z,4.20
2023-03-06T05:24:56.729Z,3.80
2023-03-06T05:27:24.779Z,3.43
2023-03-06T05:29:54.502Z,3.90
2023-03-06T05:32:23.045Z,3.87
2023-03-06T05:34:51.254Z,4.30
2023-03-06T05:37:19.426Z,3.70
2023-03-06T05:39:47.859Z,3.60
2023-03-06T05:42:15.870Z,3.63
2023-03-06T05:44:43.944Z,3.73
2023-03-06T05:47:14.050Z,3.90
2023-03-06T05:49:42.461Z,4.23
2023-03-06T05:52:10.801Z,3.83
2023-03-06T05:54:38.800Z,4.07
2023-03-06T05:57:07.459Z,3.67
2023-03-06T05:59:36.026Z,4.07
2023-03-06T06:02:05.609Z,4.27
2023-03-06T06:04:35.119Z,3.70
2023-03-06T06:07:03.167Z,4.03
2023-03-06T06:09:31.426Z,3.40
2023-03-06T06:12:02.505Z,4.03
2023-03-06T06:14:31.016Z,4.50
2023-03-06T06:16:59.061Z,4.30
2023-03-06T06:19:29.921Z,4.60
2023-03-06T06:21:59.367Z,4.90
2023-03-06T06:24:27.953Z,4.43
2023-03-06T06:26:57.688Z,4.67
2023-03-06T06:29:27.036Z,4.57
2023-03-06T06:31:55.869Z,4.63
2023-03-06T06:34:24.674Z,4.23
2023-03-06T06:36:54.451Z,5.00
2023-03-06T06:39:25.420Z,4.50
2023-03-06T06:42:05.431Z,4.47
2023-03-06T06:44:33.934Z,4.23
2023-03-06T06:49:51.494Z,4.63
2023-03-06T06:52:20.044Z,4.63
2023-03-06T06:54:49.909Z,4.23
2023-03-06T06:57:18.345Z,4.47
2023-03-06T06:59:46.580Z,4.87
2023-03-06T07:02:15.981Z,4.60
2023-03-06T07:05:01.949Z,4.50
2023-03-06T07:07:31.207Z,4.40
2023-03-06T07:10:00.716Z,4.57
2023-03-06T07:12:32.444Z,4.60
2023-03-06T07:15:00.611Z,4.17
2023-03-06T07:17:28.694Z,4.10
2023-03-06T07:19:56.867Z,4.13
2023-03-06T07:22:25.265Z,4.10
2023-03-06T07:24:53.430Z,3.53
2023-03-06T07:27:23.807Z,4.10
2023-03-06T07:29:52.108Z,4.67
2023-03-06T07:32:20.967Z,3.80
2023-03-06T07:34:49.257Z,4.67
2023-03-06T07:37:17.450Z,3.87
2023-03-06T07:39:45.510Z,4.33
2023-03-06T07:42:14.576Z,3.60
2023-03-06T07:44:44.170Z,4.97
2023-03-06T07:47:13.709Z,3.93
2023-03-06T07:49:41.765Z,4.13
2023-03-06T07:52:10.220Z,3.87
2023-03-06T07:54:38.404Z,3.97
2023-03-06T07:57:06.517Z,4.37
2023-03-06T07:59:34.618Z,3.73
2023-03-06T08:02:04.058Z,3.93
2023-03-06T08:04:32.136Z,3.70
2023-03-06T08:07:00.650Z,4.30
2023-03-06T08:09:28.956Z,4.00
2023-03-06T08:11:57.160Z,3.53
2023-03-06T08:14:25.316Z,4.40
2023-03-06T08:16:56.271Z,3.40
2023-03-06T08:19:25.743Z,3.37
2023-03-06T08:21:54.057Z,2.73
2023-03-06T08:24:22.155Z,3.10
2023-03-06T08:26:50.931Z,3.33
2023-03-06T08:29:19.065Z,3.30
2023-03-06T08:31:48.575Z,3.13
2023-03-06T08:34:19.342Z,3.27
2023-03-06T08:36:49.106Z,3.10
2023-03-06T08:39:17.207Z,3.17
2023-03-06T08:41:45.613Z,3.37
2023-03-06T08:44:14.152Z,2.70
2023-03-06T08:46:43.237Z,2.83
2023-03-06T08:49:13.293Z,2.80
2023-03-06T08:51:42.507Z,2.50
2023-03-06T08:54:14.085Z,2.57
2023-03-06T08:56:42.415Z,2.40
2023-03-06T08:59:12.164Z,2.77
2023-03-06T09:01:41.181Z,2.70
2023-03-06T09:04:11.766Z,2.80
2023-03-06T09:06:42.768Z,2.53
2023-03-06T09:09:13.125Z,2.30
2023-03-06T09:11:41.562Z,2.33
2023-03-06T09:14:09.771Z,2.40
2023-03-06T09:16:38.095Z,2.50
2023-03-06T09:19:07.069Z,2.40
2023-03-06T09:21:35.205Z,2.93
2023-03-06T09:24:04.421Z,2.23
2023-03-06T09:26:45.629Z,3.27
2023-03-06T09:29:16.414Z,2.00
2023-03-06T09:31:44.976Z,2.70
2023-03-06T09:34:13.320Z,2.10
2023-03-06T09:36:55.606Z,2.20
2023-03-06T09:39:24.517Z,2.77
2023-03-06T09:41:54.410Z,2.27
2023-03-06T09:44:27.652Z,2.60
2023-03-06T09:47:25.462Z,2.30
2023-03-06T09:50:10.248Z,2.20
2023-03-06T09:52:46.068Z,2.50
2023-03-06T09:55:18.804Z,2.60
2023-03-06T09:57:55.934Z,2.67
2023-03-06T10:00:29.424Z,2.30
2023-03-06T10:03:08.986Z,2.00
2023-03-06T10:05:41.609Z,2.17
2023-03-06T10:08:22.600Z,2.20
2023-03-06T10:10:57.024Z,2.07
2023-03-06T10:13:33.666Z,2.30
2023-03-06T10:16:11.238Z,2.60
2023-03-06T10:18:40.092Z,2.07
2023-03-06T10:21:24.063Z,1.90
2023-03-06T10:23:55.376Z,1.80
2023-03-06T10:26:26.459Z,2.07
2023-03-06T10:29:10.128Z,1.63
2023-03-06T10:31:41.070Z,1.77
2023-03-06T10:34:21.979Z,1.50
2023-03-06T10:36:50.327Z,1.60
2023-03-06T10:39:20.757Z,1.77
2023-03-06T10:41:50.409Z,1.77
2023-03-06T10:44:24.780Z,1.50
2023-03-06T10:46:54.905Z,1.77
2023-03-06T10:49:28.000Z,1.73
2023-03-06T10:52:02.133Z,1.37
2023-03-06T10:54:31.955Z,1.30
2023-03-06T10:57:18.453Z,2.03
2023-03-06T10:59:54.976Z,1.50
2023-03-06T11:02:28.382Z,1.60
2023-03-06T11:04:59.209Z,1.97
2023-03-06T11:07:28.923Z,1.87
2023-03-06T11:10:05.126Z,1.63
2023-03-06T11:12:34.634Z,1.80
2023-03-06T11:15:19.167Z,1.60
2023-03-06T11:17:57.654Z,1.30
2023-03-06T11:20:31.768Z,1.50
2023-03-06T11:23:12.149Z,1.53
2023-03-06T11:25:44.301Z,1.50
2023-03-06T11:28:22.766Z,1.23
2023-03-06T11:30:56.292Z,1.30
2023-03-06T11:33:31.933Z,1.63
2023-03-06T11:36:05.806Z,2.10
2023-03-06T11:38:43.342Z,1.50
2023-03-06T11:41:21.439Z,1.60
2023-03-06T11:43:55.956Z,1.50
2023-03-06T11:46:29.575Z,1.80
2023-03-06T11:49:06.206Z,1.50
2023-03-06T11:51:41.364Z,1.50
2023-03-06T11:54:13.649Z,24.80
2023-03-06T11:56:50.623Z,2.23
2023-03-06T11:59:46.675Z,1.47
2023-03-06T12:02:26.641Z,1.60
2023-03-06T12:05:13.610Z,1.53
2023-03-06T12:07:49.437Z,1.10
2023-03-06T12:10:24.140Z,1.30
2023-03-06T12:13:05.898Z,1.17
2023-03-06T12:16:04.471Z,1.43
2023-03-06T12:18:50.056Z,1.37
2023-03-06T12:21:26.966Z,1.20
2023-03-06T12:24:24.611Z,1.00
2023-03-06T12:27:02.719Z,1.30
2023-03-06T12:29:45.416Z,1.30
2023-03-06T12:32:28.926Z,41.07
2023-03-06T12:35:14.316Z,11.77
2023-03-06T12:37:57.368Z,2.17
2023-03-06T12:40:52.552Z,1.40
2023-03-06T12:43:58.631Z,1.40
2023-03-06T12:46:28.392Z,1.60
2023-03-06T12:49:04.535Z,1.70
2023-03-06T12:51:35.668Z,1.30
2023-03-06T12:54:04.672Z,1.40
2023-03-06T12:56:34.262Z,1.70
2023-03-06T12:59:03.091Z,1.40
2023-03-06T13:01:55.584Z,1.30
2023-03-06T13:04:46.634Z,1.30
2023-03-06T13:07:30.110Z,1.73
2023-03-06T13:10:10.602Z,1.50
2023-03-06T13:12:56.480Z,1.60
2023-03-06T13:16:05.845Z,1.53
2023-03-06T13:19:02.132Z,1.63
2023-03-06T13:22:10.554Z,1.50
2023-03-06T13:24:40.198Z,2.03
2023-03-06T13:27:10.730Z,1.70
2023-03-06T13:30:22.741Z,1.40
2023-03-06T13:32:53.892Z,2.03
2023-03-06T13:35:53.594Z,1.97
2023-03-06T13:38:36.135Z,1.53
2023-03-06T13:41:37.640Z,1.80
2023-03-06T13:44:40.816Z,2.13
2023-03-06T13:48:02.488Z,1.60
2023-03-06T13:50:49.296Z,1.50
2023-03-06T13:53:59.117Z,1.40
2023-03-06T13:56:53.790Z,1.37
2023-03-06T14:00:03.190Z,1.50
2023-03-06T14:02:54.805Z,1.53
2023-03-06T14:05:24.099Z,1.50
2023-03-06T14:08:08.549Z,2.33
2023-03-06T14:10:39.676Z,1.50
2023-03-06T14:13:17.524Z,1.70
2023-03-06T14:15:48.672Z,1.40
2023-03-06T14:18:23.824Z,1.70
2023-03-06T14:20:57.175Z,2.10
2023-03-06T14:23:32.277Z,1.97
2023-03-06T14:26:15.151Z,1.70
2023-03-06T14:28:46.244Z,1.73
2023-03-06T14:31:19.143Z,1.70
2023-03-06T14:33:53.399Z,2.30
2023-03-06T14:36:23.545Z,1.70
2023-03-06T14:38:54.009Z,1.40
2023-03-06T14:41:27.608Z,1.50
2023-03-06T14:44:21.664Z,1.30
2023-03-06T14:46:51.669Z,1.30
2023-03-06T14:49:21.833Z,1.30
2023-03-06T14:51:52.325Z,1.40
2023-03-06T14:54:23.512Z,1.33
2023-03-06T14:56:55.155Z,1.33
2023-03-06T14:59:29.519Z,1.50
2023-03-06T15:02:00.965Z,2.00
2023-03-06T15:04:36.874Z,3.30
2023-03-06T15:07:09.276Z,2.07
2023-03-06T15:09:40.373Z,2.10
2023-03-06T15:12:30.824Z,2.40
2023-03-06T15:15:03.750Z,1.40
2023-03-06T15:17:33.374Z,1.27
2023-03-06T15:20:02.574Z,1.93
2023-03-06T15:22:37.499Z,2.50
2023-03-06T15:25:26.685Z,2.10
2023-03-06T15:27:57.516Z,1.57
2023-03-06T15:30:30.356Z,1.40
2023-03-06T15:33:21.307Z,1.20
2023-03-06T15:35:55.103Z,1.30
2023-03-06T15:38:34.251Z,1.47
2023-03-06T15:41:03.887Z,1.50
2023-03-06T15:43:37.911Z,1.57
2023-03-06T15:46:08.939Z,1.50
2023-03-06T15:48:37.344Z,1.50
2023-03-06T15:51:06.276Z,1.47
2023-03-06T15:53:34.640Z,1.30
2023-03-06T15:56:03.580Z,1.37
2023-03-06T15:58:34.732Z,1.47
2023-03-06T16:01:03.944Z,1.33
2023-03-06T16:03:33.764Z,1.40
2023-03-06T16:06:02.063Z,1.33
2023-03-06T16:08:30.470Z,2.00
2023-03-06T16:10:59.072Z,1.53
2023-03-06T16:13:29.532Z,1.53
2023-03-06T16:15:57.824Z,1.53
2023-03-06T16:18:26.184Z,1.50
2023-03-06T16:20:55.817Z,1.63
2023-03-06T16:23:24.206Z,1.97
2023-03-06T16:25:52.652Z,1.53
2023-03-06T16:28:21.049Z,1.80
2023-03-06T16:30:49.327Z,2.10
2023-03-06T16:33:17.634Z,1.90
2023-03-06T16:35:47.274Z,1.53
2023-03-06T16:38:17.609Z,1.40
2023-03-06T16:40:45.945Z,1.60
2023-03-06T16:43:16.259Z,1.40
2023-03-06T16:45:44.819Z,1.60
2023-03-06T16:48:17.848Z,1.87
2023-03-06T16:50:46.643Z,1.80
2023-03-06T16:53:16.485Z,1.70
2023-03-06T16:55:44.614Z,1.70
2023-03-06T16:58:12.887Z,1.63
2023-03-06T17:00:41.274Z,1.63
2023-03-06T17:03:09.563Z,1.97
2023-03-06T17:05:39.256Z,2.20
2023-03-06T17:08:07.682Z,1.77
2023-03-06T17:10:40.037Z,2.17
2023-03-06T17:13:08.604Z,1.90
2023-03-06T17:15:36.881Z,1.90
2023-03-06T17:18:05.648Z,1.90
2023-03-06T17:20:33.916Z,1.97
2023-03-06T17:23:02.175Z,2.20
2023-03-06T17:25:30.554Z,1.70
2023-03-06T17:28:00.115Z,2.50
2023-03-06T17:30:28.382Z,2.40
2023-03-06T17:32:58.294Z,2.67
2023-03-06T17:35:26.498Z,2.30
2023-03-06T17:37:54.757Z,2.77
2023-03-06T17:40:23.135Z,2.60
2023-03-06T17:42:51.807Z,2.63
2023-03-06T17:45:21.455Z,2.47
2023-03-06T17:47:49.673Z,2.90
2023-03-06T17:50:18.409Z,2.40
2023-03-06T17:52:46.664Z,4.27
2023-03-06T17:55:15.023Z,3.67
2023-03-06T17:57:43.291Z,3.57
2023-03-06T18:00:12.727Z,3.07
2023-03-06T18:02:42.315Z,3.63
2023-03-06T18:05:11.225Z,3.90
2023-03-06T18:07:39.542Z,3.70
2023-03-06T18:10:08.413Z,4.10
2023-03-06T18:12:36.629Z,4.63
2023-03-06T18:15:05.352Z,5.27
2023-03-06T18:17:33.760Z,4.97
2023-03-06T18:20:03.439Z,5.07
2023-03-06T18:22:31.724Z,5.10
2023-03-06T18:25:00.039Z,4.13
2023-03-06T18:27:28.325Z,4.80
2023-03-06T18:29:56.621Z,4.60
2023-03-06T18:32:24.967Z,4.83
2023-03-06T18:34:55.204Z,5.40
2023-03-06T18:37:24.987Z,5.10
2023-03-06T18:39:53.415Z,5.80
2023-03-06T18:42:21.667Z,6.03
2023-03-06T18:44:49.840Z,6.33
2023-03-06T18:47:18.091Z,5.43
2023-03-06T18:49:46.406Z,6.10
2023-03-06T18:52:14.743Z,6.27
2023-03-06T18:54:44.330Z,6.83
2023-03-06T18:57:12.517Z,6.03
2023-03-06T18:59:40.703Z,6.57
2023-03-06T19:02:09.309Z,6.47
2023-03-06T19:04:37.941Z,7.03
2023-03-06T19:07:06.422Z,6.67
2023-03-06T19:09:34.708Z,6.37
2023-03-06T19:12:04.476Z,6.30
2023-03-06T19:14:32.794Z,8.93
2023-03-06T19:17:01.949Z,8.20
2023-03-06T19:19:30.365Z,8.70
2023-03-06T19:21:59.567Z,8.10
2023-03-06T19:24:28.036Z,7.73
2023-03-06T19:26:56.266Z,8.30
2023-03-06T19:29:26.518Z,7.23
2023-03-06T19:31:57.149Z,7.80
2023-03-06T19:34:25.511Z,8.20
2023-03-06T19:36:54.132Z,8.37
2023-03-06T19:39:22.466Z,7.27
2023-03-06T19:41:50.739Z,7.80
2023-03-06T19:44:18.950Z,7.43
2023-03-06T19:46:50.342Z,7.63
2023-03-06T19:49:21.898Z,9.10
2023-03-06T19:51:50.554Z,7.87
2023-03-06T19:54:23.450Z,8.53
2023-03-06T19:56:52.033Z,7.53
2023-03-06T19:59:20.524Z,7.80
2023-03-06T20:01:50.302Z,8.03
2023-03-06T20:04:18.911Z,7.30
2023-03-06T20:06:48.279Z,7.73
2023-03-06T20:09:16.764Z,6.90
2023-03-06T20:11:45.798Z,6.90
2023-03-06T20:14:14.529Z,6.93
2023-03-06T20:16:42.789Z,6.83
2023-03-06T20:19:12.870Z,6.70
2023-03-06T20:21:41.197Z,8.67
2023-03-06T20:24:16.889Z,8.17
2023-03-06T20:26:46.713Z,8.00
2023-03-06T20:29:15.189Z,8.60
2023-03-06T20:31:43.824Z,9.10
2023-03-06T20:34:15.535Z,7.70
2023-03-06T20:36:43.887Z,8.80
2023-03-06T20:39:14.314Z,9.47
2023-03-06T20:41:42.971Z,8.37
2023-03-06T20:44:15.051Z,8.40
2023-03-06T20:46:43.634Z,8.13
2023-03-06T20:49:14.290Z,7.33
2023-03-06T20:51:43.064Z,6.90
2023-03-06T20:54:13.894Z,7.57
2023-03-06T20:56:44.903Z,7.13
2023-03-06T20:59:13.696Z,7.17
2023-03-06T21:01:43.942Z,7.57
2023-03-06T21:04:14.678Z,7.30
2023-03-06T21:06:46.774Z,6.93
2023-03-06T21:09:16.911Z,7.00
2023-03-06T21:11:45.471Z,6.97
2023-03-06T21:14:14.457Z,7.27
2023-03-06T21:16:43.293Z,7.10
2023-03-06T21:19:13.190Z,6.57
2023-03-06T21:21:41.636Z,6.33
2023-03-06T21:24:10.223Z,6.63
2023-03-06T21:26:38.575Z,34.83
2023-03-06T21:29:07.332Z,7.57
2023-03-06T21:31:35.968Z,7.80
2023-03-06T21:34:06.331Z,7.53
2023-03-06T21:36:35.954Z,7.37
2023-03-06T21:39:06.210Z,6.50
2023-03-06T21:41:34.685Z,7.33
2023-03-06T21:44:04.737Z,7.00
2023-03-06T21:46:33.426Z,7.03
2023-03-06T21:49:03.231Z,6.57
2023-03-06T21:51:31.321Z,6.93
2023-03-06T21:54:02.047Z,6.80
2023-03-06T21:56:30.319Z,6.57
2023-03-06T21:58:58.557Z,6.57
2023-03-06T22:01:28.450Z,7.03
2023-03-06T22:03:57.016Z,6.30
2023-03-06T22:06:27.069Z,7.00
2023-03-06T22:08:57.386Z,7.10
2023-03-06T22:11:30.611Z,6.10
2023-03-06T22:13:59.010Z,6.37
2023-03-06T22:16:27.229Z,5.83
2023-03-06T22:18:55.279Z,6.27
2023-03-06T22:21:24.141Z,5.83
2023-03-06T22:23:52.888Z,5.97
2023-03-06T22:26:21.555Z,6.37
2023-03-06T22:28:51.128Z,6.27
2023-03-06T22:31:23.887Z,6.30
2023-03-06T22:33:53.153Z,5.93
2023-03-06T22:36:22.192Z,6.00
2023-03-06T22:38:53.912Z,5.57
2023-03-06T22:41:22.003Z,5.60
2023-03-06T22:43:51.526Z,6.13
2023-03-06T22:46:20.030Z,6.40
2023-03-06T22:48:48.243Z,6.00
2023-03-06T22:51:18.193Z,5.60
2023-03-06T22:53:46.927Z,7.07
2023-03-06T22:56:17.376Z,7.50
2023-03-06T22:58:45.747Z,7.97
2023-03-06T23:01:17.114Z,8.80
2023-03-06T23:03:47.312Z,8.40
2023-03-06T23:06:18.442Z,9.40
2023-03-06T23:08:51.069Z,9.80
2023-03-06T23:11:20.967Z,9.60
2023-03-06T23:13:49.683Z,9.17
2023-03-06T23:16:19.678Z,9.90
2023-03-06T23:18:48.450Z,10.00
2023-03-06T23:21:18.157Z,10.40
2023-03-06T23:23:49.155Z,10.60
2023-03-06T23:26:17.959Z,11.10
2023-03-06T23:28:46.607Z,10.13
2023-03-06T23:31:17.769Z,10.00
2023-03-06T23:33:47.986Z,9.57
2023-03-06T23:36:18.721Z,10.43
2023-03-06T23:38:47.541Z,10.03
2023-03-06T23:41:18.049Z,9.87
2023-03-06T23:43:46.532Z,10.13
2023-03-06T23:46:15.522Z,11.83
2023-03-06T23:48:46.729Z,9.83
2023-03-06T23:51:16.589Z,9.63
2023-03-06T23:53:45.225Z,11.37
2023-03-06T23:56:13.692Z,9.73
2023-03-06T23:58:41.908Z,10.53
